Time;durP1;ratioP1;P1;durP2;ratioP2;P2;SDS_P1;SDS_P2;PMS_P1;PMS_P2;Temp;Humidity;BMP_temperature;BMP_pressure;BME280_temperature;BME280_humidity;BME280_pressure;Samples;Min_cycle;Max_cycle;Signal;HPM_P1;HPM_P2
2022/05/09 00:00:20;;;;;;;12.55;8.77;;;;;;;;;;5051299;28;20032;-77
2022/05/09 00:02:46;;;;;;;12.80;9.52;;;;;;;;;;5051635;28;20036;-77
2022/05/09 00:05:15;;;;;;;12.15;8.95;;;;;;;;;;5051933;28;20028;-76
2022/05/09 00:07:41;;;;;;;12.77;9.20;;;;;;;;;;5034021;28;20060;-75
2022/05/09 00:10:08;;;;;;;12.38;9.13;;;;;;;;;;5033945;28;20090;-76
2022/05/09 00:12:34;;;;;;;14.43;9.40;;;;;;;;;;5051827;28;20035;-75
2022/05/09 00:14:59;;;;;;;13.52;8.55;;;;;;;;;;5051256;28;20443;-77
2022/05/09 00:17:26;;;;;;;14.43;9.45;;;;;;;;;;5052227;28;20028;-77
2022/05/09 00:19:52;;;;;;;14.90;9.18;;;;;;;;;;5033520;28;20032;-76
2022/05/09 00:22:17;;;;;;;12.95;9.27;;;;;;;;;;5036797;28;20029;-77
2022/05/09 00:24:43;;;;;;;10.77;8.73;;;;;;;;;;5032134;28;20029;-77
2022/05/09 00:27:09;;;;;;;13.77;10.02;;;;;;;;;;5031663;28;20117;-76
2022/05/09 00:29:34;;;;;;;18.65;10.50;;;;;;;;;;5031278;28;20116;-78
2022/05/09 00:32:00;;;;;;;13.73;9.80;;;;;;;;;;5030021;28;20037;-78
2022/05/09 00:34:25;;;;;;;13.82;10.63;;;;;;;;;;5046733;28;20059;-77
2022/05/09 00:36:55;;;;;;;14.40;10.88;;;;;;;;;;5049484;28;20121;-75
2022/05/09 00:39:22;;;;;;;17.25;11.05;;;;;;;;;;5052319;28;20465;-76
2022/05/09 00:41:48;;;;;;;14.38;10.57;;;;;;;;;;5051847;28;20386;-78
2022/05/09 00:44:17;;;;;;;15.48;11.52;;;;;;;;;;5049638;28;20115;-76
2022/05/09 00:46:57;;;;;;;14.63;11.13;;;;;;;;;;5050619;28;20465;-78
2022/05/09 00:49:25;;;;;;;17.73;11.35;;;;;;;;;;5033275;28;20499;-76
2022/05/09 00:52:25;;;;;;;13.57;10.93;;;;;;;;;;5050544;28;20037;-78
2022/05/09 00:54:58;;;;;;;13.27;10.23;;;;;;;;;;5050929;28;20032;-77
2022/05/09 00:57:28;;;;;;;18.85;11.32;;;;;;;;;;5051403;28;20029;-76
2022/05/09 00:59:59;;;;;;;15.30;10.52;;;;;;;;;;5032602;28;20347;-77
2022/05/09 01:02:26;;;;;;;14.23;10.90;;;;;;;;;;5032668;28;20043;-77
2022/05/09 01:04:57;;;;;;;19.75;11.68;;;;;;;;;;5032160;28;20033;-76
2022/05/09 01:07:24;;;;;;;16.58;11.27;;;;;;;;;;5050377;28;20396;-76
2022/05/09 01:09:50;;;;;;;16.65;11.63;;;;;;;;;;5050317;28;20029;-77
2022/05/09 01:12:24;;;;;;;19.67;12.27;;;;;;;;;;5050643;28;20595;-75
2022/05/09 01:14:51;;;;;;;15.13;11.50;;;;;;;;;;5050591;28;20048;-76
2022/05/09 01:17:18;;;;;;;15.63;11.98;;;;;;;;;;5049040;28;20029;-78
2022/05/09 01:19:45;;;;;;;16.27;11.60;;;;;;;;;;5050414;28;20431;-75
2022/05/09 01:22:34;;;;;;;17.08;11.45;;;;;;;;;;5049061;28;20440;-76
2022/05/09 01:25:03;;;;;;;17.45;11.93;;;;;;;;;;5031840;28;20045;-76
2022/05/09 01:27:33;;;;;;;17.20;11.93;;;;;;;;;;5049326;28;20021;-74
2022/05/09 01:30:16;;;;;;;21.48;12.50;;;;;;;;;;5048778;28;20029;-76
2022/05/09 01:32:58;;;;;;;19.95;12.02;;;;;;;;;;5050115;28;20102;-77
2022/05/09 01:35:42;;;;;;;;;;;;;;;;;;5049699;28;20063;-75
2022/05/09 01:38:30;;;;;;;20.92;11.82;;;;;;;;;;5050702;28;20283;-77
2022/05/09 01:40:56;;;;;;;18.35;11.30;;;;;;;;;;5049038;28;20079;-75
2022/05/09 01:43:29;;;;;;;16.67;11.27;;;;;;;;;;5050624;28;20437;-75
2022/05/09 01:45:54;;;;;;;17.02;11.10;;;;;;;;;;5032177;28;20025;-76
2022/05/09 01:51:03;;;;;;;14.70;11.50;;;;;;;;;;5051056;28;20086;-76
2022/05/09 01:53:29;;;;;;;14.65;11.48;;;;;;;;;;5050161;28;20025;-78
2022/05/09 01:55:55;;;;;;;15.25;11.63;;;;;;;;;;5048860;28;20420;-76
2022/05/09 01:58:20;;;;;;;19.58;11.95;;;;;;;;;;5049950;28;20465;-77
2022/05/09 02:00:46;;;;;;;15.05;11.75;;;;;;;;;;5050032;28;20155;-76
2022/05/09 02:03:11;;;;;;;15.95;11.75;;;;;;;;;;5015933;28;20025;-78
2022/05/09 02:05:38;;;;;;;15.63;12.00;;;;;;;;;;5050251;28;20465;-77
2022/05/09 02:08:04;;;;;;;22.05;12.27;;;;;;;;;;5049904;28;20473;-78
2022/05/09 02:10:29;;;;;;;18.30;11.93;;;;;;;;;;5050483;28;20035;-78
2022/05/09 02:12:55;;;;;;;15.32;11.07;;;;;;;;;;5049370;28;20029;-76
2022/05/09 02:15:20;;;;;;;15.57;11.90;;;;;;;;;;5049475;28;20071;-77
2022/05/09 02:17:47;;;;;;;17.55;12.35;;;;;;;;;;5049119;28;20029;-79
2022/05/09 02:20:13;;;;;;;16.75;11.30;;;;;;;;;;5050106;28;20035;-76
2022/05/09 02:22:41;;;;;;;16.80;11.52;;;;;;;;;;5048809;28;20029;-77
2022/05/09 02:25:26;;;;;;;18.95;11.38;;;;;;;;;;5050254;28;20425;-77
2022/05/09 02:27:52;;;;;;;17.60;11.45;;;;;;;;;;5031903;28;20048;-77
2022/05/09 02:30:18;;;;;;;15.98;11.27;;;;;;;;;;5048902;28;20067;-77
2022/05/09 02:32:44;;;;;;;16.52;11.23;;;;;;;;;;5050077;28;20060;-76
2022/05/09 02:35:09;;;;;;;16.92;11.82;;;;;;;;;;5049372;28;20061;-76
2022/05/09 02:37:35;;;;;;;16.02;11.18;;;;;;;;;;5052060;28;20394;-76
2022/05/09 02:40:00;;;;;;;15.43;11.65;;;;;;;;;;5054268;28;20025;-76
2022/05/09 02:42:26;;;;;;;21.00;12.90;;;;;;;;;;5053526;28;20380;-77
2022/05/09 02:44:54;;;;;;;16.27;11.52;;;;;;;;;;5035230;28;20473;-76
2022/05/09 02:47:20;;;;;;;18.67;12.00;;;;;;;;;;5052674;28;20123;-78
2022/05/09 02:49:46;;;;;;;17.98;11.63;;;;;;;;;;5053476;28;20388;-79
2022/05/09 02:52:12;;;;;;;17.13;10.82;;;;;;;;;;5053448;28;20033;-77
2022/05/09 02:54:38;;;;;;;19.75;11.65;;;;;;;;;;5051935;28;20029;-76
2022/05/09 02:57:05;;;;;;;18.55;11.77;;;;;;;;;;5051878;28;20485;-78
2022/05/09 02:59:30;;;;;;;17.73;11.35;;;;;;;;;;5035216;28;20438;-77
2022/05/09 03:01:56;;;;;;;16.98;11.48;;;;;;;;;;5051816;28;20029;-77
2022/05/09 03:04:40;;;;;;;17.42;10.63;;;;;;;;;;5052099;28;20021;-77
2022/05/09 03:07:09;;;;;;;15.98;10.68;;;;;;;;;;5052199;28;20029;-79
2022/05/09 03:09:36;;;;;;;18.20;11.60;;;;;;;;;;5053727;28;20468;-77
2022/05/09 03:12:03;;;;;;;20.75;11.07;;;;;;;;;;5052970;28;20040;-75
2022/05/09 03:14:29;;;;;;;17.13;11.43;;;;;;;;;;5052858;28;20441;-77
2022/05/09 03:16:55;;;;;;;37.47;23.48;;;;;;;;;;5052274;28;20029;-75
2022/05/09 03:19:21;;;;;;;19.25;11.52;;;;;;;;;;5053179;28;20036;-77
2022/05/09 03:21:48;;;;;;;15.43;9.85;;;;;;;;;;5052848;28;20071;-77
2022/05/09 03:24:14;;;;;;;13.50;10.43;;;;;;;;;;5034504;28;20397;-77
2022/05/09 03:26:39;;;;;;;17.40;10.23;;;;;;;;;;5052932;28;20033;-76
2022/05/09 03:29:05;;;;;;;18.83;11.82;;;;;;;;;;5053176;28;20029;-78
2022/05/09 03:31:30;;;;;;;24.17;11.35;;;;;;;;;;5052817;28;20031;-78
2022/05/09 03:33:57;;;;;;;18.05;11.85;;;;;;;;;;5052753;28;20397;-77
2022/05/09 03:36:23;;;;;;;14.55;10.23;;;;;;;;;;5053063;28;20029;-77
2022/05/09 03:38:49;;;;;;;13.88;9.55;;;;;;;;;;5051386;28;20473;-76
2022/05/09 03:41:14;;;;;;;14.75;9.85;;;;;;;;;;5034458;28;20041;-77
2022/05/09 03:43:40;;;;;;;17.55;11.23;;;;;;;;;;5034599;28;20025;-76
2022/05/09 03:46:06;;;;;;;17.05;11.20;;;;;;;;;;5051100;28;20143;-76
2022/05/09 03:48:31;;;;;;;14.60;10.75;;;;;;;;;;5051103;28;20060;-78
2022/05/09 03:50:57;;;;;;;14.63;9.68;;;;;;;;;;5052489;28;20112;-77
2022/05/09 03:53:26;;;;;;;16.58;9.18;;;;;;;;;;5052098;28;20025;-76
2022/05/09 03:55:51;;;;;;;15.30;10.20;;;;;;;;;;5052062;28;20033;-78
2022/05/09 03:58:18;;;;;;;14.30;10.13;;;;;;;;;;5051121;28;20488;-75
2022/05/09 04:00:44;;;;;;;28.00;12.10;;;;;;;;;;5051038;28;20056;-77
2022/05/09 04:03:10;;;;;;;17.80;10.52;;;;;;;;;;5052672;28;20468;-79
2022/05/09 04:05:36;;;;;;;18.60;10.13;;;;;;;;;;5052707;28;20075;-77
2022/05/09 04:08:05;;;;;;;15.93;10.13;;;;;;;;;;5052571;28;20094;-77
2022/05/09 04:10:33;;;;;;;16.92;10.68;;;;;;;;;;5052919;28;20032;-78
2022/05/09 04:13:00;;;;;;;15.15;11.55;;;;;;;;;;5034033;28;20030;-79
2022/05/09 04:18:11;;;;;;;15.18;9.77;;;;;;;;;;5052376;28;20039;-75
2022/05/09 04:20:38;;;;;;;21.27;11.23;;;;;;;;;;5049909;28;20110;-78
2022/05/09 04:23:04;;;;;;;17.00;10.00;;;;;;;;;;5066946;28;20530;-77
2022/05/09 04:25:34;;;;;;;15.68;10.20;;;;;;;;;;5066917;28;20025;-77
2022/05/09 04:28:02;;;;;;;13.25;9.57;;;;;;;;;;5052058;28;20476;-76
2022/05/09 04:30:29;;;;;;;16.83;9.80;;;;;;;;;;5050026;28;20032;-79
2022/05/09 04:32:55;;;;;;;17.92;10.77;;;;;;;;;;5054103;28;20468;-76
2022/05/09 04:35:28;;;;;;;15.90;10.27;;;;;;;;;;5071726;28;20055;-77
2022/05/09 04:37:54;;;;;;;16.70;10.48;;;;;;;;;;5071463;28;20215;-76
2022/05/09 04:40:28;;;;;;;17.45;11.00;;;;;;;;;;5070994;28;20028;-77
2022/05/09 04:42:56;;;;;;;15.30;10.05;;;;;;;;;;5037161;28;20515;-76
2022/05/09 04:45:22;;;;;;;16.45;10.48;;;;;;;;;;5069669;28;20020;-77
2022/05/09 04:47:51;;;;;;;12.75;10.13;;;;;;;;;;5070303;28;20028;-77
2022/05/09 04:50:20;;;;;;;17.30;10.27;;;;;;;;;;5053862;28;20036;-76
2022/05/09 04:52:46;;;;;;;14.52;9.85;;;;;;;;;;5072070;28;20037;-75
2022/05/09 04:55:13;;;;;;;14.60;9.02;;;;;;;;;;5052703;28;20033;-76
2022/05/09 04:57:39;;;;;;;15.15;10.20;;;;;;;;;;5053712;28;20033;-77
2022/05/09 05:00:07;;;;;;;15.02;9.68;;;;;;;;;;5052373;28;20036;-75
2022/05/09 05:03:27;;;;;;;19.60;10.65;;;;;;;;;;5072230;28;20035;-79
2022/05/09 05:05:53;;;;;;;14.40;9.35;;;;;;;;;;5061764;28;20032;-77
2022/05/09 05:08:20;;;;;;;31.67;10.95;;;;;;;;;;5071497;28;20115;-77
2022/05/09 05:10:47;;;;;;;16.40;10.07;;;;;;;;;;5071198;28;20028;-76
2022/05/09 05:13:13;;;;;;;18.48;10.02;;;;;;;;;;5041333;28;20029;-76
2022/05/09 05:15:39;;;;;;;20.67;10.45;;;;;;;;;;5050912;28;20025;-76
2022/05/09 05:18:05;;;;;;;16.52;10.07;;;;;;;;;;5044530;28;20030;-77
2022/05/09 05:20:31;;;;;;;15.60;10.80;;;;;;;;;;5050736;28;20037;-76
2022/05/09 05:22:56;;;;;;;15.75;9.93;;;;;;;;;;5049431;28;20036;-78
2022/05/09 05:25:25;;;;;;;20.48;11.18;;;;;;;;;;5051188;28;20123;-79
2022/05/09 05:27:51;;;;;;;22.13;11.60;;;;;;;;;;5046197;28;20563;-78
2022/05/09 05:30:18;;;;;;;18.95;11.02;;;;;;;;;;5031000;28;20060;-78
2022/05/09 05:32:44;;;;;;;15.15;9.85;;;;;;;;;;5031141;28;20025;-77
2022/05/09 05:35:22;;;;;;;14.75;10.32;;;;;;;;;;5051170;28;20039;-77
2022/05/09 05:37:48;;;;;;;14.63;11.15;;;;;;;;;;5044793;28;20465;-76
2022/05/09 05:40:15;;;;;;;20.92;11.68;;;;;;;;;;5031021;28;20115;-77
2022/05/09 05:42:42;;;;;;;18.20;12.32;;;;;;;;;;5048877;28;20090;-76
2022/05/09 05:45:10;;;;;;;14.05;10.15;;;;;;;;;;5046888;28;20064;-79
2022/05/09 05:47:36;;;;;;;16.77;10.77;;;;;;;;;;5016383;28;20057;-78
2022/05/09 05:50:07;;;;;;;15.60;9.68;;;;;;;;;;5049631;28;20032;-76
2022/05/09 05:52:33;;;;;;;17.35;10.25;;;;;;;;;;5031795;28;20040;-76
2022/05/09 05:54:58;;;;;;;14.50;10.10;;;;;;;;;;5048385;28;20074;-80
2022/05/09 05:57:30;;;;;;;15.98;10.48;;;;;;;;;;5031224;28;20055;-77
2022/05/09 06:00:06;;;;;;;14.07;9.85;;;;;;;;;;5015663;28;20087;-77
2022/05/09 06:02:32;;;;;;;14.88;9.57;;;;;;;;;;5050765;28;20431;-80
2022/05/09 06:04:58;;;;;;;12.60;9.10;;;;;;;;;;5051212;28;20029;-77
2022/05/09 06:07:24;;;;;;;15.80;9.52;;;;;;;;;;5050053;28;20017;-79
2022/05/09 06:09:52;;;;;;;14.52;9.80;;;;;;;;;;5032984;28;20063;-77
2022/05/09 06:12:40;;;;;;;17.55;10.38;;;;;;;;;;5054003;28;20021;-83
2022/05/09 06:17:50;;;;;;;24.45;9.93;;;;;;;;;;5052449;28;20519;-81
2022/05/09 06:20:18;;;;;;;18.92;11.27;;;;;;;;;;5053251;28;20119;-77
2022/05/09 06:22:54;;;;;;;21.55;10.82;;;;;;;;;;5034568;28;20423;-79
2022/05/09 06:25:21;;;;;;;15.50;8.90;;;;;;;;;;5026083;28;20025;-79
2022/05/09 06:27:48;;;;;;;15.82;10.75;;;;;;;;;;5036523;28;20029;-76
2022/05/09 06:30:16;;;;;;;17.30;9.55;;;;;;;;;;5048777;28;20025;-79
2022/05/09 06:32:42;;;;;;;20.15;9.40;;;;;;;;;;5046491;28;20074;-75
2022/05/09 06:35:11;;;;;;;16.55;7.45;;;;;;;;;;5031714;28;20032;-78
2022/05/09 06:37:38;;;;;;;10.52;5.50;;;;;;;;;;5050554;28;20532;-76
2022/05/09 06:40:13;;;;;;;14.40;6.30;;;;;;;;;;5051832;28;20029;-81
2022/05/09 06:42:50;;;;;;;13.13;6.07;;;;;;;;;;5052435;28;20029;-79
2022/05/09 06:48:23;;;;;;;11.27;6.47;;;;;;;;;;5032043;28;20385;-78
2022/05/09 06:50:52;;;;;;;13.77;6.40;;;;;;;;;;5029833;28;20036;-80
2022/05/09 06:53:17;;;;;;;10.90;5.80;;;;;;;;;;5045326;28;20025;-81
2022/05/09 06:55:54;;;;;;;12.70;5.47;;;;;;;;;;5018440;28;20044;-81
2022/05/09 06:58:29;;;;;;;12.32;5.07;;;;;;;;;;5046974;28;20056;-84
2022/05/09 07:00:55;;;;;;;10.20;5.10;;;;;;;;;;5035140;28;20067;-79
2022/05/09 07:03:22;;;;;;;13.18;6.10;;;;;;;;;;5049896;28;20113;-81
2022/05/09 07:06:10;;;;;;;11.98;5.88;;;;;;;;;;5050004;28;20052;-80
2022/05/09 07:08:48;;;;;;;15.50;6.07;;;;;;;;;;5047115;28;20039;-84
2022/05/09 07:11:15;;;;;;;9.85;6.15;;;;;;;;;;5050814;28;20060;-80
2022/05/09 07:17:20;;;;;;;11.48;5.28;;;;;;;;;;5005392;28;20051;-78
2022/05/09 07:19:49;;;;;;;7.60;5.25;;;;;;;;;;5049123;28;20033;-83
2022/05/09 07:22:36;;;;;;;10.07;5.28;;;;;;;;;;5047905;28;20021;-83
2022/05/09 07:27:49;;;;;;;8.10;5.57;;;;;;;;;;5047445;28;20451;-77
2022/05/09 07:30:34;;;;;;;10.32;5.20;;;;;;;;;;5049154;28;20085;-79
2022/05/09 07:33:00;;;;;;;8.75;4.90;;;;;;;;;;5042489;28;20067;-84
2022/05/09 07:35:44;;;;;;;8.13;4.80;;;;;;;;;;5054200;28;20036;-84
2022/05/09 07:38:11;;;;;;;11.73;5.65;;;;;;;;;;5049907;28;20037;-79
2022/05/09 07:40:43;;;;;;;9.23;5.30;;;;;;;;;;5047730;28;20033;-80
2022/05/09 07:43:16;;;;;;;14.00;6.25;;;;;;;;;;5053140;28;20676;-81
2022/05/09 07:45:45;;;;;;;9.02;5.22;;;;;;;;;;5036407;28;20039;-79
2022/05/09 07:48:18;;;;;;;12.23;4.97;;;;;;;;;;5029197;28;20096;-79
2022/05/09 07:50:58;;;;;;;8.90;5.45;;;;;;;;;;5051191;28;20025;-82
2022/05/09 07:54:22;;;;;;;11.63;4.50;;;;;;;;;;5051370;28;20036;-83
2022/05/09 07:56:40;;;;;;;9.55;5.15;;;;;;;;;;5043664;28;20040;-80
2022/05/09 07:59:24;;;;;;;8.85;4.82;;;;;;;;;;5039839;28;20026;-83
2022/05/09 08:01:52;;;;;;;12.85;5.30;;;;;;;;;;5046696;28;20163;-81
2022/05/09 08:04:24;;;;;;;9.48;5.15;;;;;;;;;;5045559;28;20123;-84
2022/05/09 08:07:25;;;;;;;12.23;4.43;;;;;;;;;;5038715;28;20579;-79
2022/05/09 08:10:57;;;;;;;;;;;;;;;;;;;;;
2022/05/09 08:13:14;;;;;;;7.60;4.53;;;;;;;;;;4989176;28;20038;-81
2022/05/09 08:15:49;;;;;;;6.75;4.28;;;;;;;;;;4967796;28;20035;-84
2022/05/09 08:18:19;;;;;;;10.35;4.85;;;;;;;;;;5033022;28;20449;-83
2022/05/09 08:20:55;;;;;;;;;;;;;;;;;;;;;
2022/05/09 08:23:25;;;;;;;7.70;4.43;;;;;;;;;;5003673;28;20047;-81
2022/05/09 08:25:51;;;;;;;13.55;4.95;;;;;;;;;;5047469;28;20143;-80
2022/05/09 08:28:24;;;;;;;6.95;3.95;;;;;;;;;;5031849;28;20035;-82
2022/05/09 08:30:52;;;;;;;10.77;4.60;;;;;;;;;;5048211;28;20736;-79
2022/05/09 08:33:24;;;;;;;8.45;4.70;;;;;;;;;;5050270;28;20079;-81
2022/05/09 08:36:45;;;;;;;9.75;4.25;;;;;;;;;;5047135;28;20029;-85
2022/05/09 08:39:00;;;;;;;11.60;4.47;;;;;;;;;;5042503;28;20980;-82
2022/05/09 08:41:42;;;;;;;;;;;;;;;;;;;;;
2022/05/09 08:44:20;;;;;;;7.18;4.10;;;;;;;;;;5046926;28;20029;-84
2022/05/09 08:47:44;;;;;;;;;;;;;;;;;;;;;
2022/05/09 08:53:43;;;;;;;7.07;3.85;;;;;;;;;;5015058;28;20445;-83
2022/05/09 08:56:23;;;;;;;11.30;4.40;;;;;;;;;;5044636;28;20108;-84
2022/05/09 08:59:09;;;;;;;5.80;3.88;;;;;;;;;;5030951;28;20080;-84
2022/05/09 09:02:12;;;;;;;7.35;3.50;;;;;;;;;;5051785;28;20040;-86
2022/05/09 09:04:53;;;;;;;9.18;3.53;;;;;;;;;;5046640;28;20028;-83
2022/05/09 09:07:53;;;;;;;5.32;3.70;;;;;;;;;;5024436;28;20025;-85
2022/05/09 09:10:32;;;;;;;5.07;3.97;;;;;;;;;;5041523;28;20085;-82
2022/05/09 09:13:20;;;;;;;5.63;3.88;;;;;;;;;;5046010;28;20036;-79
2022/05/09 09:16:26;;;;;;;6.82;3.75;;;;;;;;;;5042991;28;20045;-81
2022/05/09 09:19:29;;;;;;;5.55;3.42;;;;;;;;;;5040024;28;20032;-81
2022/05/09 09:22:43;;;;;;;5.22;3.30;;;;;;;;;;5043878;28;20061;-82
2022/05/09 09:25:42;;;;;;;5.38;3.88;;;;;;;;;;4979981;28;20041;-81
2022/05/09 09:28:46;;;;;;;11.45;3.65;;;;;;;;;;5011005;28;20128;-82
2022/05/09 09:31:25;;;;;;;13.57;4.13;;;;;;;;;;5040375;28;20097;-80
2022/05/09 09:34:19;;;;;;;;;;;;;;;;;;;;;
2022/05/09 09:37:22;;;;;;;6.30;3.47;;;;;;;;;;5043077;28;20135;-80
2022/05/09 09:39:58;;;;;;;4.82;3.20;;;;;;;;;;5044024;28;20036;-77
2022/05/09 09:42:30;;;;;;;8.70;3.38;;;;;;;;;;5045048;28;20073;-81
2022/05/09 09:45:22;;;;;;;8.45;3.80;;;;;;;;;;5043308;28;20029;-81
2022/05/09 09:48:08;;;;;;;7.47;4.00;;;;;;;;;;5050039;28;20083;-80
2022/05/09 09:50:50;;;;;;;7.43;3.53;;;;;;;;;;5051079;28;20044;-78
2022/05/09 09:53:51;;;;;;;4.18;3.13;;;;;;;;;;5033878;28;20437;-81
2022/05/09 09:56:23;;;;;;;5.95;3.53;;;;;;;;;;5050380;28;20533;-80
2022/05/09 09:59:13;;;;;;;6.43;3.33;;;;;;;;;;5046899;28;20104;-78
2022/05/09 10:01:43;;;;;;;4.60;3.08;;;;;;;;;;5018750;28;20041;-81
2022/05/09 10:04:12;;;;;;;5.55;4.05;;;;;;;;;;5047663;28;20037;-78
2022/05/09 10:07:02;;;;;;;4.43;3.85;;;;;;;;;;5029106;28;20172;-80
2022/05/09 10:10:13;;;;;;;6.43;3.38;;;;;;;;;;5041210;28;20037;-80
2022/05/09 10:12:48;;;;;;;10.25;4.35;;;;;;;;;;5009317;28;22029;-80
2022/05/09 10:15:36;;;;;;;10.35;4.03;;;;;;;;;;5046958;28;20481;-82
2022/05/09 10:18:21;;;;;;;9.85;3.80;;;;;;;;;;5049848;28;20432;-82
2022/05/09 10:20:51;;;;;;;7.60;3.80;;;;;;;;;;5051002;28;20033;-80
2022/05/09 10:26:30;;;;;;;5.70;4.03;;;;;;;;;;5053609;28;20082;-82
2022/05/09 10:29:15;;;;;;;7.50;4.03;;;;;;;;;;5046469;28;20495;-78
2022/05/09 10:32:11;;;;;;;7.90;3.97;;;;;;;;;;5046842;28;20027;-79
2022/05/09 10:35:25;;;;;;;3.63;3.30;;;;;;;;;;5024288;28;20112;-80
2022/05/09 10:38:00;;;;;;;7.13;3.70;;;;;;;;;;5042662;28;20868;-79
2022/05/09 10:40:43;;;;;;;5.32;4.45;;;;;;;;;;5047794;28;20032;-79
2022/05/09 10:43:14;;;;;;;8.70;3.88;;;;;;;;;;5039580;28;20028;-77
2022/05/09 10:45:50;;;;;;;17.00;4.38;;;;;;;;;;5026805;28;20048;-80
2022/05/09 10:48:34;;;;;;;9.50;4.20;;;;;;;;;;5043253;28;20465;-76
2022/05/09 10:51:32;;;;;;;8.40;4.88;;;;;;;;;;5045599;28;20127;-81
2022/05/09 10:54:22;;;;;;;6.43;3.72;;;;;;;;;;5045299;28;20395;-82
2022/05/09 10:57:19;;;;;;;5.00;3.88;;;;;;;;;;5046076;28;20418;-80
2022/05/09 11:00:05;;;;;;;5.43;3.95;;;;;;;;;;5047237;28;20507;-80
2022/05/09 11:02:38;;;;;;;9.82;4.50;;;;;;;;;;5042844;28;20399;-79
2022/05/09 11:05:14;;;;;;;11.32;4.35;;;;;;;;;;5031935;28;20442;-87
2022/05/09 11:11:48;;;;;;;6.97;3.87;;;;;;;;;;4956195;28;20035;-84
2022/05/09 11:14:34;;;;;;;8.40;3.35;;;;;;;;;;4977443;28;20779;-83
2022/05/09 11:17:12;;;;;;;;;;;;;;;;;;;;;
2022/05/09 11:20:19;;;;;;;6.07;3.72;;;;;;;;;;5047054;28;20445;-84
2022/05/09 11:23:23;;;;;;;9.10;4.35;;;;;;;;;;5038737;28;20083;-82
2022/05/09 11:26:12;;;;;;;;;;;;;;;;;;;;;
2022/05/09 11:29:13;;;;;;;9.30;4.00;;;;;;;;;;5043764;28;20028;-79
2022/05/09 11:32:16;;;;;;;6.05;3.38;;;;;;;;;;5042486;28;20037;-79
2022/05/09 11:34:56;;;;;;;5.75;3.78;;;;;;;;;;5047331;28;20144;-82
2022/05/09 11:37:57;;;;;;;6.15;3.67;;;;;;;;;;5039257;28;20129;-82
2022/05/09 11:41:12;;;;;;;13.25;4.30;;;;;;;;;;5008923;28;20048;-86
2022/05/09 11:47:00;;;;;;;5.72;3.13;;;;;;;;;;5042117;28;20037;-78
2022/05/09 11:50:17;;;;;;;6.72;3.53;;;;;;;;;;5047119;28;20024;-81
2022/05/09 11:53:09;;;;;;;5.78;3.17;;;;;;;;;;5018155;28;20228;-84
2022/05/09 11:55:39;;;;;;;7.68;3.78;;;;;;;;;;5044713;28;20525;-82
2022/05/09 11:58:10;;;;;;;4.03;3.47;;;;;;;;;;5048449;28;20029;-79
2022/05/09 12:00:35;;;;;;;6.35;3.65;;;;;;;;;;5048389;28;20060;-79
2022/05/09 12:04:08;;;;;;;12.88;3.75;;;;;;;;;;5032889;28;20067;-79
2022/05/09 12:06:39;;;;;;;7.10;3.90;;;;;;;;;;5042663;28;20040;-79
2022/05/09 12:09:11;;;;;;;5.38;3.70;;;;;;;;;;5047439;28;20067;-79
2022/05/09 12:11:54;;;;;;;6.30;3.75;;;;;;;;;;5048087;28;20317;-79
2022/05/09 12:14:53;;;;;;;5.07;2.85;;;;;;;;;;5026762;28;20040;-81
2022/05/09 12:18:04;;;;;;;;;;;;;;;;;;;;;
2022/05/09 12:21:31;;;;;;;;;;;;;;;;;;;;;
2022/05/09 12:23:55;;;;;;;9.80;3.58;;;;;;;;;;5047121;28;20043;-79
2022/05/09 12:26:33;;;;;;;6.05;3.53;;;;;;;;;;5032779;28;20084;-79
2022/05/09 12:29:24;;;;;;;5.53;3.45;;;;;;;;;;5032415;28;20302;-78
2022/05/09 12:32:11;;;;;;;;;;;;;;;;;;;;;
2022/05/09 12:35:16;;;;;;;6.93;3.35;;;;;;;;;;5048602;28;20057;-79
2022/05/09 12:37:45;;;;;;;6.28;3.65;;;;;;;;;;5014442;28;20053;-79
2022/05/09 12:40:56;;;;;;;5.50;3.40;;;;;;;;;;5032141;28;20082;-78
2022/05/09 12:44:02;;;;;;;5.85;3.50;;;;;;;;;;5035249;28;20478;-80
2022/05/09 12:47:05;;;;;;;3.72;3.22;;;;;;;;;;5011849;28;20531;-78
2022/05/09 12:50:09;;;;;;;7.13;3.80;;;;;;;;;;5026413;28;20033;-78
2022/05/09 12:52:57;;;;;;;7.18;3.90;;;;;;;;;;5032269;28;20040;-80
2022/05/09 12:58:47;;;;;;;5.50;3.90;;;;;;;;;;5050155;28;20104;-80
2022/05/09 13:02:12;;;;;;;;;;;;;;;;;;;;;
2022/05/09 13:05:26;;;;;;;10.68;3.80;;;;;;;;;;4953571;28;20082;-81
2022/05/09 13:08:44;;;;;;;5.68;3.80;;;;;;;;;;5048549;28;20033;-81
2022/05/09 13:11:48;;;;;;;5.82;3.63;;;;;;;;;;5003925;28;20079;-79
2022/05/09 13:18:34;;;;;;;6.85;3.75;;;;;;;;;;5032198;28;20034;-79
2022/05/09 13:21:50;;;;;;;9.13;3.85;;;;;;;;;;5048805;28;20028;-79
2022/05/09 13:24:59;;;;;;;7.80;3.63;;;;;;;;;;4991243;28;20410;-78
2022/05/09 13:27:43;;;;;;;5.88;3.13;;;;;;;;;;5029590;28;20033;-81
2022/05/09 13:30:26;;;;;;;4.88;3.65;;;;;;;;;;5048367;28;20071;-81
2022/05/09 13:33:19;;;;;;;6.40;3.10;;;;;;;;;;5049905;28;20033;-80
2022/05/09 13:36:04;;;;;;;8.93;3.17;;;;;;;;;;5048310;28;20045;-79
2022/05/09 13:38:42;;;;;;;5.18;3.00;;;;;;;;;;5047377;28;20069;-78
2022/05/09 13:41:24;;;;;;;7.18;3.00;;;;;;;;;;5049551;28;20098;-77
2022/05/09 13:44:06;;;;;;;2.90;2.63;;;;;;;;;;5045313;28;20115;-76
2022/05/09 13:46:35;;;;;;;6.22;2.80;;;;;;;;;;5043023;28;20053;-79
2022/05/09 13:49:04;;;;;;;7.55;3.13;;;;;;;;;;5044418;28;20484;-78
2022/05/09 13:51:37;;;;;;;8.20;3.35;;;;;;;;;;5046351;28;20037;-78
2022/05/09 13:54:22;;;;;;;9.35;3.10;;;;;;;;;;5025976;28;20401;-77
2022/05/09 13:56:57;;;;;;;7.20;3.47;;;;;;;;;;5044828;28;20026;-76
2022/05/09 13:59:50;;;;;;;8.07;3.22;;;;;;;;;;5049590;28;20025;-78
2022/05/09 14:02:30;;;;;;;6.43;2.22;;;;;;;;;;5048190;28;20056;-78
2022/05/09 14:05:46;;;;;;;3.00;2.33;;;;;;;;;;5030886;28;20393;-80
2022/05/09 14:08:13;;;;;;;5.25;2.25;;;;;;;;;;5050684;28;20515;-78
2022/05/09 14:11:02;;;;;;;3.72;2.00;;;;;;;;;;5030654;28;20377;-77
2022/05/09 14:13:41;;;;;;;3.00;2.10;;;;;;;;;;5028189;28;20098;-78
2022/05/09 14:16:50;;;;;;;5.00;2.60;;;;;;;;;;5046750;28;20074;-80
2022/05/09 14:19:42;;;;;;;5.50;2.63;;;;;;;;;;5032165;28;20036;-76
2022/05/09 14:22:13;;;;;;;8.68;2.40;;;;;;;;;;5048023;28;20045;-79
2022/05/09 14:30:41;;;;;;;5.50;2.08;;;;;;;;;;5048116;28;20136;-78
2022/05/09 14:33:32;;;;;;;4.75;2.38;;;;;;;;;;5047947;28;20400;-78
2022/05/09 14:35:58;;;;;;;3.67;2.10;;;;;;;;;;5053015;28;20049;-76
2022/05/09 14:38:30;;;;;;;4.75;2.63;;;;;;;;;;5034570;28;20029;-79
2022/05/09 14:44:11;;;;;;;;;;;;;;;;;;5054706;28;20035;-79
2022/05/09 14:47:11;;;;;;;10.27;2.45;;;;;;;;;;5051248;28;19920;-79
2022/05/09 14:50:06;;;;;;;2.97;2.17;;;;;;;;;;5012212;28;20380;-78
2022/05/09 14:53:14;;;;;;;6.75;2.42;;;;;;;;;;5038401;28;20098;-79
2022/05/09 14:58:40;;;;;;;5.82;2.60;;;;;;;;;;5052120;28;20134;-78
2022/05/09 15:01:21;;;;;;;6.68;3.13;;;;;;;;;;5040374;28;20132;-77
2022/05/09 15:03:50;;;;;;;2.55;2.17;;;;;;;;;;5051074;28;20448;-79
2022/05/09 15:06:18;;;;;;;12.70;7.83;;;;;;;;;;5059726;28;20025;-77
2022/05/09 15:08:46;;;;;;;12.65;5.97;;;;;;;;;;5051749;28;20025;-81
2022/05/09 15:11:35;;;;;;;5.28;2.60;;;;;;;;;;5053089;28;20090;-77
2022/05/09 15:14:03;;;;;;;15.10;3.40;;;;;;;;;;5053499;28;20045;-78
2022/05/09 15:16:32;;;;;;;2.83;2.13;;;;;;;;;;5035428;28;20111;-79
2022/05/09 15:18:58;;;;;;;4.55;2.78;;;;;;;;;;5028992;28;20044;-78
2022/05/09 15:21:25;;;;;;;7.93;2.50;;;;;;;;;;5052062;28;20345;-78
2022/05/09 15:23:51;;;;;;;3.85;2.30;;;;;;;;;;5052117;28;20083;-77
2022/05/09 15:26:20;;;;;;;5.50;3.30;;;;;;;;;;5052771;28;20302;-77
2022/05/09 15:28:52;;;;;;;4.22;2.10;;;;;;;;;;5052305;28;20077;-79
2022/05/09 15:31:19;;;;;;;5.63;2.50;;;;;;;;;;5034268;28;20567;-76
2022/05/09 15:33:45;;;;;;;5.78;2.92;;;;;;;;;;5062033;28;20021;-79
2022/05/09 15:36:11;;;;;;;3.22;2.20;;;;;;;;;;5059066;28;20435;-77
2022/05/09 15:38:36;;;;;;;4.03;2.42;;;;;;;;;;5049173;28;20120;-78
2022/05/09 15:41:10;;;;;;;4.00;2.97;;;;;;;;;;5049779;28;20508;-79
2022/05/09 15:43:40;;;;;;;2.88;2.25;;;;;;;;;;5050861;28;20024;-78
2022/05/09 15:46:06;;;;;;;6.15;2.60;;;;;;;;;;5051415;28;20126;-77
2022/05/09 15:48:33;;;;;;;4.00;3.08;;;;;;;;;;5046545;28;20037;-78
2022/05/09 15:51:01;;;;;;;4.43;2.55;;;;;;;;;;5051814;28;20021;-78
2022/05/09 15:53:29;;;;;;;5.88;2.78;;;;;;;;;;5051317;28;20033;-78
2022/05/09 15:56:00;;;;;;;6.22;2.50;;;;;;;;;;5052190;28;20032;-77
2022/05/09 15:58:34;;;;;;;5.70;1.98;;;;;;;;;;5033954;28;20504;-78
2022/05/09 16:01:00;;;;;;;19.95;12.23;;;;;;;;;;5052366;28;20021;-78
2022/05/09 16:03:26;;;;;;;3.42;2.20;;;;;;;;;;5051486;28;20468;-77
2022/05/09 16:11:28;;;;;;;3.08;2.83;;;;;;;;;;5053078;28;20154;-77
2022/05/09 16:13:57;;;;;;;5.22;2.45;;;;;;;;;;5052801;28;20143;-77
2022/05/09 16:16:25;;;;;;;6.05;2.85;;;;;;;;;;5067910;28;20028;-78
2022/05/09 16:18:52;;;;;;;6.22;3.15;;;;;;;;;;5051975;28;20346;-78
2022/05/09 16:21:19;;;;;;;8.60;3.90;;;;;;;;;;5061651;28;20067;-78
2022/05/09 16:23:44;;;;;;;5.13;2.70;;;;;;;;;;5052205;28;20488;-78
2022/05/09 16:26:12;;;;;;;6.85;2.55;;;;;;;;;;5048224;28;20048;-78
2022/05/09 16:28:39;;;;;;;5.70;2.90;;;;;;;;;;5049635;28;20477;-80
2022/05/09 16:31:04;;;;;;;4.60;2.95;;;;;;;;;;5046512;28;20378;-77
2022/05/09 16:33:30;;;;;;;5.60;3.55;;;;;;;;;;5039506;28;20027;-77